Time;durP1;ratioP1;P1;durP2;ratioP2;P2;SDS_P1;SDS_P2;PMS_P1;PMS_P2;Temp;Humidity;BMP_temperature;BMP_pressure;BME280_temperature;BME280_humidity;BME280_pressure;Samples;Min_cycle;Max_cycle;Signal;HPM_P1;HPM_P2
2022/04/30 00:00:47;;;;;;;4.77;3.10;;;;;;;14.71;68.51;102046.44;2582980;22;20176;-63
2022/04/30 00:01:47;;;;;;;4.30;2.70;;;;;;;14.70;68.49;102042.84;2583139;23;20380;-63
2022/04/30 00:02:48;;;;;;;5.73;3.37;;;;;;;14.72;68.56;102048.03;2583212;22;20149;-63
2022/04/30 00:03:48;;;;;;;3.37;3.00;;;;;;;14.69;68.39;102040.50;2582692;22;20178;-64
2022/04/30 00:04:49;;;;;;;3.83;2.93;;;;;;;14.42;68.49;102003.53;2583138;22;20605;-64
2022/04/30 00:05:49;;;;;;;4.03;2.90;;;;;;;14.69;68.47;102044.06;2582832;22;20178;-64
2022/04/30 00:06:50;;;;;;;5.27;3.00;;;;;;;14.69;68.64;102046.88;2583083;22;20616;-63
2022/04/30 00:07:50;;;;;;;3.73;2.80;;;;;;;14.70;68.21;102037.28;2583211;22;20152;-63
2022/04/30 00:08:51;;;;;;;4.50;2.90;;;;;;;14.73;68.46;102035.63;2582730;22;20480;-64
2022/04/30 00:09:51;;;;;;;4.33;3.30;;;;;;;14.71;68.21;102047.22;2582987;22;20150;-64
2022/04/30 00:10:53;;;;;;;3.77;3.17;;;;;;;14.67;68.08;102057.69;2582818;22;20153;-63
2022/04/30 00:11:54;;;;;;;4.20;3.10;;;;;;;13.59;68.13;101876.31;2583099;22;20660;-64
2022/04/30 00:12:54;;;;;;;5.83;3.20;;;;;;;14.46;68.06;102010.63;2583084;22;20729;-63
2022/04/30 00:13:55;;;;;;;3.63;2.83;;;;;;;14.58;68.23;102043.50;2582707;22;20605;-63
2022/04/30 00:14:55;;;;;;;3.50;3.20;;;;;;;13.69;68.16;101894.84;2583016;22;20478;-64
2022/04/30 00:15:56;;;;;;;4.17;2.83;;;;;;;14.64;68.19;102038.19;2582698;22;20176;-64
2022/04/30 00:16:57;;;;;;;5.53;3.00;;;;;;;14.64;68.27;102032.59;2582735;22;20176;-64
2022/04/30 00:17:57;;;;;;;4.93;2.70;;;;;;;14.45;68.08;102008.25;2582978;22;20379;-64
2022/04/30 00:18:59;;;;;;;4.90;2.97;;;;;;;14.64;68.15;102043.78;2582848;22;20165;-64
2022/04/30 00:20:00;;;;;;;4.10;3.07;;;;;;;14.64;67.75;102041.78;2582558;22;20233;-64
2022/04/30 00:21:00;;;;;;;3.50;2.73;;;;;;;14.63;68.08;102034.63;2582606;22;20421;-64
2022/04/30 00:22:01;;;;;;;5.63;2.80;;;;;;;13.97;67.87;101946.53;2582828;22;20399;-64
2022/04/30 00:23:01;;;;;;;3.50;2.90;;;;;;;14.46;68.18;102032.94;2582916;23;20144;-64
2022/04/30 00:24:02;;;;;;;4.83;2.83;;;;;;;14.49;68.28;102031.31;2582777;23;20150;-64
2022/04/30 00:25:03;;;;;;;2.83;2.53;;;;;;;14.46;68.38;102046.91;2582794;23;20255;-64
2022/04/30 00:26:03;;;;;;;3.57;2.87;;;;;;;14.38;68.49;102051.00;2582670;23;20610;-64
2022/04/30 00:27:05;;;;;;;4.07;3.00;;;;;;;14.36;68.43;102041.50;2582910;23;20144;-65
2022/04/30 00:28:05;;;;;;;3.23;2.87;;;;;;;14.38;68.47;102050.22;2583032;23;20229;-64
2022/04/30 00:29:07;;;;;;;3.73;2.97;;;;;;;14.27;68.56;102030.09;2582294;23;20878;-64
2022/04/30 00:30:09;;;;;;;4.63;3.10;;;;;;;14.33;68.62;102050.69;2582728;23;20612;-64
2022/04/30 00:31:09;;;;;;;4.93;3.13;;;;;;;14.28;68.96;102046.41;2582841;23;20377;-64
2022/04/30 00:32:10;;;;;;;5.13;2.87;;;;;;;14.26;68.73;102051.63;2583063;23;20367;-63
2022/04/30 00:33:11;;;;;;;4.67;3.20;;;;;;;14.21;68.89;102054.88;2582695;23;20153;-64
2022/04/30 00:34:11;;;;;;;3.77;3.10;;;;;;;14.17;69.16;102051.34;2582883;23;20145;-64
2022/04/30 00:35:12;;;;;;;4.23;2.80;;;;;;;14.12;69.21;102054.59;2582475;23;20649;-65
2022/04/30 00:36:12;;;;;;;3.50;3.10;;;;;;;13.61;69.26;101979.75;2582574;23;20179;-64
2022/04/30 00:37:13;;;;;;;5.43;3.30;;;;;;;14.07;69.51;102054.28;2583007;23;20494;-64
2022/04/30 00:38:15;;;;;;;5.03;3.00;;;;;;;14.03;69.79;102054.31;2582853;23;20150;-64
2022/04/30 00:39:15;;;;;;;6.03;3.30;;;;;;;13.94;69.65;102051.28;2582606;23;20203;-64
2022/04/30 00:40:16;;;;;;;3.40;3.10;;;;;;;13.99;70.01;102053.59;2582687;23;20381;-64
2022/04/30 00:41:16;;;;;;;5.40;3.13;;;;;;;14.02;70.02;102055.53;2582733;23;20157;-64
2022/04/30 00:42:17;;;;;;;4.50;3.50;;;;;;;13.99;69.93;102055.59;2582755;23;20169;-64
2022/04/30 00:43:17;;;;;;;4.20;3.17;;;;;;;13.94;70.17;102059.63;2582603;23;20156;-64
2022/04/30 00:44:18;;;;;;;4.17;3.20;;;;;;;13.87;70.21;102048.59;2583051;23;20234;-64
2022/04/30 00:45:20;;;;;;;3.30;3.00;;;;;;;13.66;70.28;102029.41;2582356;23;20196;-64
2022/04/30 00:46:23;;;;;;;3.40;3.00;;;;;;;13.94;70.49;102059.63;2582573;23;20625;-64
2022/04/30 00:47:24;;;;;;;4.60;3.30;;;;;;;13.63;70.48;102024.66;2582777;23;20879;-64
2022/04/30 00:48:25;;;;;;;4.23;3.20;;;;;;;13.98;70.67;102063.16;2582973;23;20374;-64
2022/04/30 00:49:25;;;;;;;3.50;3.00;;;;;;;13.92;70.59;102055.69;2582640;23;20378;-63
2022/04/30 00:50:30;;;;;;;4.77;3.20;;;;;;;13.15;70.33;101939.81;2582481;23;20158;-63
2022/04/30 00:51:31;;;;;;;4.60;3.07;;;;;;;13.95;70.56;102066.00;2583023;23;20149;-64
2022/04/30 00:52:33;;;;;;;3.63;3.13;;;;;;;13.46;70.53;101974.78;2583094;23;20383;-63
2022/04/30 00:53:34;;;;;;;4.70;3.33;;;;;;;13.99;70.65;102058.41;2582284;23;20469;-64
2022/04/30 00:54:37;;;;;;;4.03;3.23;;;;;;;13.97;70.32;102069.97;2582927;23;20379;-63
2022/04/30 00:55:42;;;;;;;4.70;2.80;;;;;;;14.00;70.54;102065.53;2582683;23;20158;-63
2022/04/30 00:56:50;;;;;;;3.57;3.03;;;;;;;14.00;70.51;102069.13;2582777;23;20374;-64
2022/04/30 00:57:54;;;;;;;4.33;3.33;;;;;;;13.95;70.60;102069.59;2582580;23;20404;-64
2022/04/30 00:58:58;;;;;;;3.90;3.20;;;;;;;13.99;70.69;102058.41;2582487;23;20700;-64
2022/04/30 01:00:00;;;;;;;4.77;3.40;;;;;;;14.02;70.83;102065.91;2582573;23;20416;-63
2022/04/30 01:01:02;;;;;;;3.73;2.90;;;;;;;14.09;70.73;102068.59;2582576;23;20415;-63
2022/04/30 01:02:03;;;;;;;4.57;3.33;;;;;;;14.01;70.48;102053.97;2582857;23;20735;-63
2022/04/30 01:03:04;;;;;;;4.83;3.27;;;;;;;14.07;70.40;102071.78;2582822;23;20449;-63
2022/04/30 01:04:07;;;;;;;3.63;2.90;;;;;;;14.09;70.36;102068.59;2582800;23;20148;-63
2022/04/30 01:05:10;;;;;;;4.40;3.60;;;;;;;14.13;70.38;102070.09;2582599;23;20204;-64
2022/04/30 01:06:12;;;;;;;4.33;3.00;;;;;;;14.16;70.29;102065.69;2582538;23;20367;-63
2022/04/30 01:07:13;;;;;;;4.80;3.20;;;;;;;14.17;70.02;102064.47;2583071;23;20371;-63
2022/04/30 01:08:14;;;;;;;4.67;2.90;;;;;;;14.10;70.14;102056.22;2582909;23;20454;-63
2022/04/30 01:09:16;;;;;;;3.57;2.83;;;;;;;14.13;69.98;102064.53;2582588;23;20154;-63
2022/04/30 01:10:17;;;;;;;3.50;2.90;;;;;;;14.19;69.78;102062.06;2582512;23;20152;-64
2022/04/30 01:11:19;;;;;;;3.77;2.70;;;;;;;14.20;69.73;102069.25;2582801;23;20378;-63
2022/04/30 01:12:20;;;;;;;4.43;3.03;;;;;;;14.20;69.78;102067.22;2582812;23;20428;-63
2022/04/30 01:13:21;;;;;;;4.00;3.00;;;;;;;14.24;69.58;102067.97;2582398;23;20441;-63
2022/04/30 01:14:25;;;;;;;4.93;3.23;;;;;;;14.12;69.39;102057.38;2582825;23;20376;-63
2022/04/30 01:15:26;;;;;;;4.63;3.20;;;;;;;14.09;69.48;102063.03;2582234;23;20151;-63
2022/04/30 01:16:28;;;;;;;3.90;2.97;;;;;;;14.14;69.39;102059.75;2582415;23;20446;-64
2022/04/30 01:17:29;;;;;;;3.70;3.10;;;;;;;14.08;69.63;102059.44;2582764;23;20468;-63
2022/04/30 01:18:33;;;;;;;3.93;3.53;;;;;;;13.96;69.28;102048.88;2582967;23;20386;-63
2022/04/30 01:19:37;;;;;;;4.63;3.00;;;;;;;14.07;69.72;102065.41;2582572;23;20152;-63
2022/04/30 01:20:43;;;;;;;4.63;3.40;;;;;;;14.11;69.58;102066.97;2581613;23;20400;-63
2022/04/30 01:21:45;;;;;;;4.20;3.30;;;;;;;13.08;69.61;101909.31;2582032;23;20373;-63
2022/04/30 01:23:04;;;;;;;3.77;3.20;;;;;;;14.01;69.78;102069.91;2582574;22;20437;-63
2022/04/30 01:24:05;;;;;;;4.07;3.53;;;;;;;14.04;69.79;102071.84;2582810;23;20369;-63
2022/04/30 01:25:06;;;;;;;5.17;3.70;;;;;;;13.85;69.81;102042.69;2582475;23;20724;-63
2022/04/30 01:26:09;;;;;;;5.13;3.30;;;;;;;13.54;69.71;101996.56;2582496;23;20918;-63
2022/04/30 01:27:10;;;;;;;5.90;3.50;;;;;;;13.67;70.17;102025.41;2582564;23;20485;-63
2022/04/30 01:28:12;;;;;;;4.30;3.30;;;;;;;13.98;69.94;102071.53;2582941;23;20379;-63
2022/04/30 01:29:12;;;;;;;4.50;3.40;;;;;;;14.00;69.96;102071.91;2582127;23;20155;-62
2022/04/30 01:30:13;;;;;;;5.27;3.50;;;;;;;14.00;70.22;102069.13;2582325;23;20375;-63
2022/04/30 01:37:58;;;;;;;4.20;3.70;;;;;;;13.90;70.31;102058.94;2582702;23;20358;-62
2022/04/30 01:39:00;;;;;;;4.53;3.80;;;;;;;14.02;70.56;102068.69;2582293;23;20554;-64
2022/04/30 01:40:05;;;;;;;3.57;3.23;;;;;;;14.05;70.48;102074.22;2582401;23;20368;-63
2022/04/30 01:41:06;;;;;;;4.10;3.40;;;;;;;14.08;70.37;102070.59;2582560;23;20399;-63
2022/04/30 01:42:11;;;;;;;4.43;2.97;;;;;;;13.96;70.45;102046.09;2582713;23;20366;-63
2022/04/30 01:43:13;;;;;;;4.20;3.50;;;;;;;14.12;69.99;102068.53;2582169;23;20144;-63
2022/04/30 01:44:13;;;;;;;4.13;3.57;;;;;;;14.13;70.12;102069.31;2582714;23;20378;-63
2022/04/30 01:45:16;;;;;;;4.63;3.50;;;;;;;14.13;70.31;102067.31;2582048;23;20416;-63
2022/04/30 01:46:17;;;;;;;4.70;3.77;;;;;;;14.14;69.98;102071.69;2582301;23;20148;-64
2022/04/30 01:47:18;;;;;;;4.93;3.60;;;;;;;14.16;70.11;102065.69;2582547;23;20461;-63
2022/04/30 01:48:19;;;;;;;5.47;3.67;;;;;;;14.16;69.96;102060.91;2582703;23;20144;-63
2022/04/30 01:49:20;;;;;;;4.60;3.50;;;;;;;14.22;69.81;102066.81;2582168;23;20386;-62
2022/04/30 01:50:21;;;;;;;3.80;3.40;;;;;;;14.20;69.61;102072.81;2582202;23;20389;-63
2022/04/30 01:51:21;;;;;;;4.27;3.37;;;;;;;14.03;69.91;102057.13;2582268;23;20151;-62
2022/04/30 01:52:22;;;;;;;4.63;3.53;;;;;;;13.20;69.63;101915.09;2582755;23;20616;-62
2022/04/30 01:53:23;;;;;;;5.17;3.40;;;;;;;14.21;69.66;102074.41;2582193;23;20609;-63
2022/04/30 01:54:23;;;;;;;6.10;3.67;;;;;;;14.24;69.68;102064.41;2582553;23;20156;-64
2022/04/30 01:55:23;;;;;;;4.07;3.47;;;;;;;14.06;69.37;102045.13;2582274;23;20158;-63
2022/04/30 01:56:24;;;;;;;4.00;3.50;;;;;;;14.22;69.30;102067.63;2582410;23;20366;-62
2022/04/30 01:57:26;;;;;;;5.33;3.90;;;;;;;14.22;69.30;102069.59;2582300;23;20175;-63
2022/04/30 01:58:27;;;;;;;5.10;3.40;;;;;;;14.26;69.43;102070.34;2582277;23;20272;-62
2022/04/30 01:59:28;;;;;;;4.73;3.10;;;;;;;14.25;69.22;102066.75;2582400;23;20388;-62
2022/04/30 02:00:28;;;;;;;4.97;3.57;;;;;;;14.29;69.04;102077.88;2581495;23;20535;-63
2022/04/30 02:01:29;;;;;;;5.33;3.30;;;;;;;14.25;69.09;102063.97;2581840;23;20428;-63
2022/04/30 02:02:36;;;;;;;4.17;3.63;;;;;;;13.63;68.92;101974.53;2582779;23;20148;-63
2022/04/30 02:03:37;;;;;;;5.30;3.40;;;;;;;14.12;69.08;102042.66;2582341;23;20139;-62
2022/04/30 02:04:39;;;;;;;3.90;3.47;;;;;;;14.27;68.92;102069.91;2582402;23;20419;-63
2022/04/30 02:05:40;;;;;;;4.40;3.33;;;;;;;13.39;69.07;101936.72;2568860;23;20417;-62
2022/04/30 02:06:41;;;;;;;5.00;3.50;;;;;;;14.18;69.05;102066.03;2569158;23;20786;-62
2022/04/30 02:08:07;;;;;;;4.80;3.60;;;;;;;14.09;69.20;102071.38;2582359;23;20417;-63
2022/04/30 02:09:08;;;;;;;4.90;3.87;;;;;;;14.07;69.56;102071.78;2582226;23;20142;-63
2022/04/30 02:10:11;;;;;;;4.83;3.27;;;;;;;14.10;69.41;102067.38;2582417;23;20879;-63
2022/04/30 02:11:11;;;;;;;5.43;3.53;;;;;;;14.00;69.29;102066.34;2582389;23;20175;-63
2022/04/30 02:12:12;;;;;;;4.43;3.60;;;;;;;14.10;69.49;102072.94;2582606;23;20382;-63
2022/04/30 02:13:14;;;;;;;3.80;3.37;;;;;;;14.11;69.51;102075.31;2582012;23;20241;-63
2022/04/30 02:14:15;;;;;;;4.13;3.50;;;;;;;14.07;69.54;102066.22;2582577;23;20146;-63
2022/04/30 02:15:17;;;;;;;4.07;3.47;;;;;;;14.12;69.52;102067.72;2582379;23;20449;-63
2022/04/30 02:16:22;;;;;;;4.40;3.60;;;;;;;14.12;69.33;102062.97;2582094;23;20437;-64
2022/04/30 02:17:26;;;;;;;4.53;3.47;;;;;;;14.11;69.28;102066.97;2582274;23;20359;-63
2022/04/30 02:18:28;;;;;;;5.00;3.40;;;;;;;14.12;69.28;102060.16;2582513;23;20930;-63
2022/04/30 02:20:18;;;;;;;4.37;3.57;;;;;;;14.15;69.17;102066.91;2581950;23;20393;-63
2022/04/30 02:20:55;;;;;;;4.17;3.53;;;;;;;14.21;69.05;102065.25;2581874;23;20878;-63
2022/04/30 02:21:59;;;;;;;3.90;3.50;;;;;;;14.25;68.93;102071.56;2582157;23;20385;-62
2022/04/30 02:23:03;;;;;;;4.87;3.70;;;;;;;14.30;68.71;102069.06;2582385;23;20527;-63
2022/04/30 02:24:03;;;;;;;4.10;3.07;;;;;;;14.23;68.86;102063.59;2582356;23;20376;-63
2022/04/30 02:25:09;;;;;;;3.73;3.13;;;;;;;14.23;68.71;102063.59;2582174;23;20376;-62
2022/04/30 02:26:10;;;;;;;6.07;3.93;;;;;;;14.08;69.13;102045.50;2582149;23;20219;-62
2022/04/30 02:27:11;;;;;;;4.40;3.53;;;;;;;14.30;68.68;102069.06;2582595;23;20380;-63
2022/04/30 02:28:12;;;;;;;5.67;3.70;;;;;;;14.23;68.43;102054.44;2582546;23;20226;-63
2022/04/30 02:29:12;;;;;;;4.10;3.60;;;;;;;14.27;68.56;102055.97;2582076;23;20377;-62
2022/04/30 02:30:15;;;;;;;4.57;3.57;;;;;;;14.28;68.43;102049.19;2582282;23;20600;-63
2022/04/30 02:31:22;;;;;;;3.90;3.50;;;;;;;14.15;68.50;102036.22;2582187;23;20494;-63
2022/04/30 02:32:22;;;;;;;4.17;3.50;;;;;;;13.90;68.60;102000.41;2582536;23;20382;-63
2022/04/30 02:33:23;;;;;;;4.97;3.80;;;;;;;14.26;68.32;102056.41;2581908;23;20442;-63
2022/04/30 02:34:23;;;;;;;4.20;3.57;;;;;;;14.17;68.45;102061.69;2582432;23;20147;-62
2022/04/30 02:35:26;;;;;;;3.97;3.40;;;;;;;14.14;68.76;102056.97;2581852;23;20593;-63
2022/04/30 02:36:27;;;;;;;6.40;3.73;;;;;;;14.09;68.66;102055.44;2582102;23;20175;-63
2022/04/30 02:37:28;;;;;;;4.30;3.63;;;;;;;14.10;68.98;102059.78;2582544;23;20386;-62
2022/04/30 02:38:29;;;;;;;4.87;3.70;;;;;;;14.21;68.68;102054.09;2582405;23;20411;-63
2022/04/30 02:39:30;;;;;;;6.47;3.90;;;;;;;14.26;68.66;102051.63;2568677;23;20236;-63
2022/04/30 02:40:33;;;;;;;4.73;3.83;;;;;;;14.23;68.61;102055.25;2568789;23;20218;-63
2022/04/30 02:41:35;;;;;;;5.17;4.20;;;;;;;13.36;68.41;101920.03;2582281;23;20386;-63
2022/04/30 02:42:35;;;;;;;3.87;3.40;;;;;;;14.28;68.42;102060.34;2582497;23;20840;-62
2022/04/30 02:43:37;;;;;;;4.80;4.00;;;;;;;14.31;68.46;102056.72;2581974;23;20429;-63
2022/04/30 02:44:38;;;;;;;5.77;4.10;;;;;;;14.33;68.42;102057.06;2582486;23;20178;-63
2022/04/30 02:45:42;;;;;;;4.07;3.67;;;;;;;14.33;68.30;102048.69;2568461;23;20393;-63
2022/04/30 02:46:43;;;;;;;4.50;4.10;;;;;;;14.37;68.03;102063.38;2569912;23;20230;-63
2022/04/30 02:47:46;;;;;;;4.30;3.83;;;;;;;14.35;67.95;102059.44;2568848;23;20387;-63
2022/04/30 02:48:47;;;;;;;6.53;3.97;;;;;;;14.37;67.92;102051.44;2569330;23;20151;-64
2022/04/30 02:49:48;;;;;;;5.90;4.07;;;;;;;14.41;68.07;102057.75;2582400;23;20406;-63
2022/04/30 02:50:48;;;;;;;4.33;3.90;;;;;;;14.07;67.95;102013.25;2581938;23;20373;-63
2022/04/30 02:51:49;;;;;;;6.00;4.27;;;;;;;14.44;67.92;102063.25;2582410;23;20206;-63
2022/04/30 02:52:55;;;;;;;4.43;4.00;;;;;;;14.43;67.63;102064.47;2582198;23;20156;-64
2022/04/30 02:53:55;;;;;;;4.93;4.10;;;;;;;14.49;67.59;102057.19;2582193;23;20373;-63
2022/04/30 02:54:56;;;;;;;5.13;4.00;;;;;;;14.46;67.36;102046.09;2582125;23;20382;-63
2022/04/30 02:55:56;;;;;;;4.67;4.10;;;;;;;14.09;67.28;101973.81;2582054;23;20230;-64
2022/04/30 02:56:57;;;;;;;4.43;3.90;;;;;;;14.64;67.27;102060.50;2582122;23;20179;-64
2022/04/30 03:00:44;;;;;;;4.90;3.70;;;;;;;14.45;67.14;102062.03;2582286;23;20383;-63
2022/04/30 03:01:44;;;;;;;4.47;3.97;;;;;;;14.36;67.27;102058.22;2582313;23;20914;-63
2022/04/30 03:02:45;;;;;;;6.40;4.10;;;;;;;14.28;67.43;102060.34;2582470;23;20780;-64
2022/04/30 03:03:49;;;;;;;5.27;4.30;;;;;;;14.17;67.52;102059.69;2582151;23;20148;-63
2022/04/30 03:04:53;;;;;;;4.83;4.10;;;;;;;14.18;67.48;102066.84;2582266;23;20159;-63
2022/04/30 03:05:55;;;;;;;4.27;3.87;;;;;;;14.14;67.68;102068.88;2581389;23;20897;-63
2022/04/30 03:06:56;;;;;;;5.03;4.50;;;;;;;14.10;67.81;102059.78;2581322;23;20418;-63
2022/04/30 03:07:58;;;;;;;4.97;4.13;;;;;;;13.22;67.96;101929.38;2581491;23;20880;-63
2022/04/30 03:08:59;;;;;;;4.63;4.00;;;;;;;14.14;67.74;102059.75;2581310;23;20180;-63
2022/04/30 03:09:59;;;;;;;5.77;4.20;;;;;;;14.12;67.54;102059.38;2581487;23;20778;-63
2022/04/30 03:11:02;;;;;;;9.57;4.57;;;;;;;14.03;67.89;102065.47;2582328;23;20560;-63
2022/04/30 03:12:03;;;;;;;5.03;4.43;;;;;;;14.00;67.83;102057.97;2582384;23;20197;-63
2022/04/30 03:13:04;;;;;;;4.77;4.20;;;;;;;13.86;68.15;102057.38;2582198;23;20435;-63
2022/04/30 03:14:04;;;;;;;5.47;4.30;;;;;;;13.76;68.44;102056.34;2582250;23;20491;-63
2022/04/30 03:15:05;;;;;;;9.23;4.90;;;;;;;13.70;68.48;102060.81;2582087;23;20498;-63
2022/04/30 03:22:42;;;;;;;4.87;4.17;;;;;;;13.78;68.55;102064.28;2582160;23;20460;-63
2022/04/30 03:23:43;;;;;;;5.07;4.40;;;;;;;13.79;68.61;102072.19;2581780;23;20393;-63
2022/04/30 03:24:43;;;;;;;4.70;3.87;;;;;;;13.85;68.44;102064.97;2582316;23;20185;-63
2022/04/30 03:25:44;;;;;;;4.70;4.20;;;;;;;13.89;68.22;102070.50;2581975;23;20151;-62
2022/04/30 03:26:49;;;;;;;5.27;4.23;;;;;;;13.83;68.30;102066.59;2582123;23;20228;-63
2022/04/30 03:27:49;;;;;;;4.80;4.30;;;;;;;13.87;67.97;102072.88;2582279;23;20382;-63
2022/04/30 03:28:51;;;;;;;5.70;4.10;;;;;;;13.87;68.05;102067.31;2568568;23;20385;-63
2022/04/30 03:29:51;;;;;;;5.67;4.17;;;;;;;13.85;67.90;102073.31;2569079;23;20190;-63
2022/04/30 03:30:52;;;;;;;4.50;4.03;;;;;;;13.85;67.78;102076.13;2581908;23;20387;-63
2022/04/30 03:31:52;;;;;;;4.60;4.10;;;;;;;13.81;68.07;102082.94;2582370;23;20178;-63
2022/04/30 03:32:53;;;;;;;7.03;4.37;;;;;;;13.87;67.65;102079.25;2582434;23;20234;-63
2022/04/30 03:33:53;;;;;;;5.10;3.93;;;;;;;13.95;67.63;102071.59;2582037;23;20157;-63
2022/04/30 03:34:54;;;;;;;7.00;4.50;;;;;;;13.96;67.49;102073.97;2582139;23;20151;-63
2022/04/30 03:35:55;;;;;;;4.73;4.20;;;;;;;13.90;67.37;102072.88;2581970;23;20162;-63
2022/04/30 03:36:55;;;;;;;4.70;4.20;;;;;;;13.94;67.55;102070.00;2581802;23;20151;-63
2022/04/30 03:37:56;;;;;;;4.60;3.90;;;;;;;13.89;67.35;102068.47;2582094;23;20778;-62
2022/04/30 03:38:56;;;;;;;4.50;4.10;;;;;;;13.88;67.41;102068.91;2582091;23;20182;-63
2022/04/30 03:39:57;;;;;;;4.93;4.37;;;;;;;13.91;67.35;102068.84;2581156;23;20234;-63
2022/04/30 03:40:57;;;;;;;4.80;4.17;;;;;;;13.84;67.50;102076.53;2581265;23;20148;-63
2022/04/30 03:41:58;;;;;;;5.13;4.60;;;;;;;13.21;67.40;101991.84;2582366;23;20154;-63
2022/04/30 03:42:58;;;;;;;5.03;4.00;;;;;;;13.73;67.65;102082.25;2582469;23;20152;-63
2022/04/30 03:43:59;;;;;;;6.80;4.90;;;;;;;13.68;67.81;102079.16;2582005;23;20630;-63
2022/04/30 03:45:02;;;;;;;6.00;4.20;;;;;;;13.78;67.68;102081.00;2582064;23;20153;-63
2022/04/30 03:46:05;;;;;;;6.63;4.13;;;;;;;13.81;67.88;102083.72;2581989;23;20541;-63
2022/04/30 03:47:23;;;;;;;4.97;4.30;;;;;;;13.79;67.74;102083.34;2582059;23;20397;-63
2022/04/30 03:48:24;;;;;;;5.97;4.50;;;;;;;13.79;67.90;102082.56;2582367;23;20363;-64
2022/04/30 03:49:24;;;;;;;7.17;4.20;;;;;;;13.80;68.02;102086.94;2581657;23;20466;-63
2022/04/30 03:50:25;;;;;;;5.70;4.17;;;;;;;13.20;67.94;101997.81;2581946;23;20606;-63
2022/04/30 03:51:25;;;;;;;4.50;3.97;;;;;;;13.76;68.05;102080.59;2582087;23;20158;-63
2022/04/30 03:52:26;;;;;;;4.97;4.30;;;;;;;13.68;68.05;102081.94;2582318;23;20150;-63
2022/04/30 03:53:26;;;;;;;5.87;4.40;;;;;;;13.42;67.93;102043.69;2581895;23;20156;-62
2022/04/30 03:54:27;;;;;;;7.13;4.57;;;;;;;13.48;68.11;102058.72;2582272;23;20289;-63
2022/04/30 03:55:28;;;;;;;4.90;4.40;;;;;;;13.03;68.11;101976.56;2581780;23;20175;-63
2022/04/30 03:56:28;;;;;;;5.17;4.57;;;;;;;13.65;68.08;102083.56;2581921;23;20217;-63
2022/04/30 03:57:29;;;;;;;5.27;4.70;;;;;;;13.58;68.08;102075.28;2582114;23;20431;-63
2022/04/30 03:58:30;;;;;;;4.77;4.27;;;;;;;13.59;68.34;102079.66;2582054;23;20626;-63
2022/04/30 03:59:30;;;;;;;4.90;4.37;;;;;;;13.59;68.26;102090.81;2581785;23;20157;-63
2022/04/30 04:00:31;;;;;;;6.43;4.57;;;;;;;13.60;68.28;102086.00;2581859;23;20152;-62
2022/04/30 04:01:32;;;;;;;5.40;4.03;;;;;;;13.58;68.49;102080.84;2582014;23;20156;-63
2022/04/30 04:02:33;;;;;;;5.90;4.50;;;;;;;13.57;68.45;102089.66;2582367;23;20201;-62
2022/04/30 04:03:36;;;;;;;6.00;4.83;;;;;;;13.50;68.40;102090.53;2581760;23;20447;-63
2022/04/30 04:04:36;;;;;;;5.53;4.67;;;;;;;13.45;68.77;102090.19;2582282;23;20157;-63
2022/04/30 04:05:38;;;;;;;5.80;4.70;;;;;;;13.53;68.60;102088.91;2581730;23;20386;-63
2022/04/30 04:06:38;;;;;;;5.00;4.50;;;;;;;13.14;68.59;102049.59;2581977;23;20483;-63
2022/04/30 04:07:40;;;;;;;5.47;4.90;;;;;;;13.44;68.91;102092.19;2582069;23;20420;-63
2022/04/30 04:08:41;;;;;;;7.37;4.73;;;;;;;13.54;68.75;102087.69;2581992;23;20148;-63
2022/04/30 04:09:41;;;;;;;5.30;4.50;;;;;;;13.52;68.85;102090.88;2568442;23;20473;-64
2022/04/30 04:10:42;;;;;;;6.33;4.63;;;;;;;13.05;68.55;102008.34;2568516;23;20153;-63
2022/04/30 04:11:42;;;;;;;5.43;4.67;;;;;;;13.61;68.58;102091.16;2582115;23;20155;-63
2022/04/30 04:12:43;;;;;;;6.50;4.80;;;;;;;13.60;68.63;102091.56;2582131;23;20598;-63
2022/04/30 04:17:56;;;;;;;5.47;4.80;;;;;;;13.85;68.27;102092.03;2582310;23;20355;-63
2022/04/30 04:18:57;;;;;;;5.27;4.77;;;;;;;13.87;68.14;102095.97;2568396;23;20392;-63
2022/04/30 04:19:58;;;;;;;5.17;4.23;;;;;;;13.45;68.26;102059.53;2568393;23;20154;-63
2022/04/30 04:20:59;;;;;;;5.50;4.60;;;;;;;13.74;68.24;102094.94;2582122;23;20148;-63
2022/04/30 04:22:00;;;;;;;4.60;4.20;;;;;;;13.80;67.91;102096.09;2582978;23;20149;-63
2022/04/30 04:23:01;;;;;;;5.23;4.53;;;;;;;13.86;67.94;102097.19;2582751;23;20478;-63
2022/04/30 04:26:41;;;;;;;5.23;4.60;;;;;;;13.98;67.22;102084.69;2582905;23;20347;-63
2022/04/30 04:27:41;;;;;;;5.90;4.87;;;;;;;13.88;67.42;102096.78;2582706;23;20857;-63
2022/04/30 04:28:42;;;;;;;6.13;4.80;;;;;;;12.71;67.07;101914.94;2582453;23;20504;-63
2022/04/30 04:29:43;;;;;;;5.63;4.37;;;;;;;13.86;67.27;102101.97;2582754;23;20196;-63
2022/04/30 04:30:44;;;;;;;6.13;4.50;;;;;;;13.97;67.27;102100.63;2582620;23;20153;-63
2022/04/30 04:31:44;;;;;;;5.97;4.40;;;;;;;14.04;67.20;102103.28;2583019;23;20387;-63
2022/04/30 04:32:45;;;;;;;6.23;4.53;;;;;;;14.06;67.17;102105.66;2583008;23;20226;-63
2022/04/30 04:33:45;;;;;;;5.00;4.30;;;;;;;13.44;67.15;102000.28;2582555;23;20178;-63
2022/04/30 04:34:46;;;;;;;5.57;4.57;;;;;;;14.09;66.91;102093.69;2582780;23;20182;-63
2022/04/30 04:35:46;;;;;;;5.03;4.43;;;;;;;14.17;67.02;102106.28;2582647;23;20159;-63
2022/04/30 04:36:47;;;;;;;4.93;4.07;;;;;;;13.70;66.90;102037.72;2582724;23;20148;-63
2022/04/30 04:37:48;;;;;;;6.10;5.00;;;;;;;14.04;66.98;102110.88;2582791;23;20153;-63
2022/04/30 04:38:48;;;;;;;5.47;4.57;;;;;;;14.07;66.89;102091.31;2582655;23;20626;-63
2022/04/30 04:39:49;;;;;;;5.47;4.50;;;;;;;14.25;66.89;102105.00;2582884;23;20162;-63
2022/04/30 04:40:49;;;;;;;4.50;4.10;;;;;;;14.35;66.56;102113.19;2582311;23;20174;-63
2022/04/30 04:41:50;;;;;;;4.77;4.30;;;;;;;14.40;66.51;102112.72;2582857;23;20307;-63
2022/04/30 04:42:50;;;;;;;5.67;4.47;;;;;;;14.44;66.22;102116.25;2582995;23;20203;-63
2022/04/30 04:43:51;;;;;;;5.50;4.60;;;;;;;14.40;66.07;102112.72;2582497;23;20183;-62
2022/04/30 04:44:51;;;;;;;5.47;4.50;;;;;;;14.33;66.05;102093.31;2582635;23;20583;-63
2022/04/30 04:45:52;;;;;;;5.00;4.50;;;;;;;13.89;65.71;102028.69;2582539;23;20187;-63
2022/04/30 04:46:52;;;;;;;4.77;4.27;;;;;;;14.43;65.84;102120.25;2582573;23;20591;-63
2022/04/30 04:47:54;;;;;;;6.13;4.80;;;;;;;14.30;65.80;102110.88;2583007;23;20559;-62
2022/04/30 04:48:54;;;;;;;6.13;5.13;;;;;;;13.31;66.02;101970.63;2582601;23;20258;-63
2022/04/30 04:49:55;;;;;;;5.90;4.57;;;;;;;14.32;65.81;102121.63;2582493;23;20389;-63
2022/04/30 04:50:56;;;;;;;5.63;4.50;;;;;;;14.31;65.95;102126.44;2582806;23;20545;-63
2022/04/30 04:51:56;;;;;;;5.07;4.57;;;;;;;14.36;65.97;102125.16;2582903;23;20622;-63
2022/04/30 04:52:57;;;;;;;6.07;4.67;;;;;;;14.00;66.02;102059.97;2582770;23;20148;-63
2022/04/30 04:53:57;;;;;;;5.50;4.40;;;;;;;14.48;65.89;102127.34;2582722;23;20505;-63
2022/04/30 04:54:58;;;;;;;5.03;4.43;;;;;;;13.65;65.67;102001.97;2582755;23;20154;-63
2022/04/30 04:56:01;;;;;;;5.10;4.53;;;;;;;14.31;65.92;102103.31;2582219;23;20148;-63
2022/04/30 04:57:01;;;;;;;5.17;4.50;;;;;;;14.49;65.57;102123.38;2582555;23;20153;-63
2022/04/30 04:58:02;;;;;;;5.27;4.77;;;;;;;14.48;65.85;102127.34;2582701;23;20586;-63
2022/04/30 04:59:02;;;;;;;5.47;4.47;;;;;;;14.41;65.49;102111.53;2582207;23;20159;-63
2022/04/30 05:00:05;;;;;;;5.47;4.93;;;;;;;14.54;65.74;102128.44;2582392;23;20146;-64
2022/04/30 05:01:06;;;;;;;5.57;4.27;;;;;;;14.23;65.60;102071.16;2582624;23;20149;-63
2022/04/30 05:02:07;;;;;;;5.77;5.00;;;;;;;14.06;65.28;102047.13;2582914;23;20404;-63
2022/04/30 05:03:07;;;;;;;5.63;5.13;;;;;;;13.96;65.35;102032.16;2582475;23;20207;-63
2022/04/30 05:04:11;;;;;;;6.87;4.50;;;;;;;14.52;65.40;102131.69;2582795;23;20508;-63
2022/04/30 05:05:13;;;;;;;5.80;4.87;;;;;;;14.24;65.45;102114.59;2582263;23;20596;-62
2022/04/30 05:06:14;;;;;;;5.07;4.57;;;;;;;14.52;65.37;102126.09;2582713;23;20377;-63
2022/04/30 05:07:14;;;;;;;5.07;4.57;;;;;;;14.62;65.27;102135.50;2582535;23;20395;-63
2022/04/30 05:08:15;;;;;;;6.07;4.67;;;;;;;14.69;64.94;102141.75;2582994;23;20220;-63
2022/04/30 05:09:15;;;;;;;8.90;4.77;;;;;;;14.75;64.91;102139.28;2568898;23;20178;-63